sensor_id;sensor_type;location;lat;lon;timestamp;P1;durP1;ratioP1;P2;durP2;ratioP2
68353;SDS011;55274;43.060;25.618;2023-02-22T00:00:17;13.25;;;4.97;;
68353;SDS011;55274;43.060;25.618;2023-02-22T00:02:49;10.00;;;4.75;;
68353;SDS011;55274;43.060;25.618;2023-02-22T00:05:16;11.40;;;4.65;;
68353;SDS011;55274;43.060;25.618;2023-02-22T00:07:49;12.10;;;4.47;;
68353;SDS011;55274;43.060;25.618;2023-02-22T00:10:15;26.50;;;4.90;;
68353;SDS011;55274;43.060;25.618;2023-02-22T00:12:45;12.30;;;4.68;;
68353;SDS011;55274;43.060;25.618;2023-02-22T00:15:16;14.55;;;4.30;;
68353;SDS011;55274;43.060;25.618;2023-02-22T00:17:43;10.77;;;4.43;;
68353;SDS011;55274;43.060;25.618;2023-02-22T00:20:09;12.57;;;4.40;;
68353;SDS011;55274;43.060;25.618;2023-02-22T00:22:40;11.40;;;3.72;;
68353;SDS011;55274;43.060;25.618;2023-02-22T00:25:07;9.88;;;4.32;;
68353;SDS011;55274;43.060;25.618;2023-02-22T00:27:34;9.45;;;3.72;;
68353;SDS011;55274;43.060;25.618;2023-02-22T00:30:00;10.27;;;3.97;;
68353;SDS011;55274;43.060;25.618;2023-02-22T00:32:27;8.13;;;3.47;;
68353;SDS011;55274;43.060;25.618;2023-02-22T00:34:53;10.90;;;5.30;;
68353;SDS011;55274;43.060;25.618;2023-02-22T00:37:19;11.15;;;4.72;;
68353;SDS011;55274;43.060;25.618;2023-02-22T00:39:46;17.75;;;4.82;;
68353;SDS011;55274;43.060;25.618;2023-02-22T00:42:13;8.85;;;4.35;;
68353;SDS011;55274;43.060;25.618;2023-02-22T00:44:39;7.38;;;3.80;;
68353;SDS011;55274;43.060;25.618;2023-02-22T00:47:05;10.05;;;5.07;;
68353;SDS011;55274;43.060;25.618;2023-02-22T00:49:31;10.25;;;4.40;;
68353;SDS011;55274;43.060;25.618;2023-02-22T00:51:57;9.85;;;4.07;;
68353;SDS011;55274;43.060;25.618;2023-02-22T00:54:23;11.40;;;4.47;;
68353;SDS011;55274;43.060;25.618;2023-02-22T00:56:49;17.55;;;5.05;;
68353;SDS011;55274;43.060;25.618;2023-02-22T00:59:15;26.13;;;4.85;;
68353;SDS011;55274;43.060;25.618;2023-02-22T01:01:41;17.27;;;4.55;;
68353;SDS011;55274;43.060;25.618;2023-02-22T01:04:07;18.05;;;4.82;;
68353;SDS011;55274;43.060;25.618;2023-02-22T01:06:33;11.48;;;4.43;;
68353;SDS011;55274;43.060;25.618;2023-02-22T01:09:00;13.88;;;4.43;;
68353;SDS011;55274;43.060;25.618;2023-02-22T01:11:27;10.38;;;4.53;;
68353;SDS011;55274;43.060;25.618;2023-02-22T01:13:53;11.05;;;4.88;;
68353;SDS011;55274;43.060;25.618;2023-02-22T01:16:19;9.85;;;4.80;;
68353;SDS011;55274;43.060;25.618;2023-02-22T01:18:45;10.38;;;4.50;;
68353;SDS011;55274;43.060;25.618;2023-02-22T01:21:11;10.38;;;4.85;;
68353;SDS011;55274;43.060;25.618;2023-02-22T01:23:37;10.90;;;5.50;;
68353;SDS011;55274;43.060;25.618;2023-02-22T01:26:03;13.63;;;4.43;;
68353;SDS011;55274;43.060;25.618;2023-02-22T01:28:32;10.43;;;4.88;;
68353;SDS011;55274;43.060;25.618;2023-02-22T01:30:59;11.60;;;4.70;;
68353;SDS011;55274;43.060;25.618;2023-02-22T01:33:25;16.67;;;4.80;;
68353;SDS011;55274;43.060;25.618;2023-02-22T01:35:51;14.18;;;5.47;;
68353;SDS011;55274;43.060;25.618;2023-02-22T01:38:17;7.57;;;4.55;;
68353;SDS011;55274;43.060;25.618;2023-02-22T01:40:46;12.40;;;5.32;;
68353;SDS011;55274;43.060;25.618;2023-02-22T01:43:15;17.48;;;6.28;;
68353;SDS011;55274;43.060;25.618;2023-02-22T01:45:56;11.55;;;6.00;;
68353;SDS011;55274;43.060;25.618;2023-02-22T01:51:15;32.47;;;8.10;;
68353;SDS011;55274;43.060;25.618;2023-02-22T01:56:15;28.27;;;7.63;;
68353;SDS011;55274;43.060;25.618;2023-02-22T01:58:45;25.17;;;6.20;;
68353;SDS011;55274;43.060;25.618;2023-02-22T02:01:15;18.92;;;6.18;;
68353;SDS011;55274;43.060;25.618;2023-02-22T02:03:42;11.95;;;6.40;;
68353;SDS011;55274;43.060;25.618;2023-02-22T02:06:11;15.93;;;6.25;;
68353;SDS011;55274;43.060;25.618;2023-02-22T02:08:57;16.90;;;6.72;;
68353;SDS011;55274;43.060;25.618;2023-02-22T02:11:24;23.92;;;6.47;;
68353;SDS011;55274;43.060;25.618;2023-02-22T02:13:52;17.40;;;5.90;;
68353;SDS011;55274;43.060;25.618;2023-02-22T02:16:20;17.90;;;5.85;;
68353;SDS011;55274;43.060;25.618;2023-02-22T02:18:51;16.60;;;6.00;;
68353;SDS011;55274;43.060;25.618;2023-02-22T02:21:33;22.45;;;6.50;;
68353;SDS011;55274;43.060;25.618;2023-02-22T02:32:21;14.18;;;5.45;;
68353;SDS011;55274;43.060;25.618;2023-02-22T02:35:17;12.45;;;5.97;;
68353;SDS011;55274;43.060;25.618;2023-02-22T02:41:04;12.93;;;5.90;;
68353;SDS011;55274;43.060;25.618;2023-02-22T02:43:46;13.57;;;6.00;;
68353;SDS011;55274;43.060;25.618;2023-02-22T02:46:50;15.85;;;5.43;;
68353;SDS011;55274;43.060;25.618;2023-02-22T02:49:24;14.52;;;5.38;;
68353;SDS011;55274;43.060;25.618;2023-02-22T02:51:57;12.18;;;5.30;;
68353;SDS011;55274;43.060;25.618;2023-02-22T02:54:24;18.02;;;5.68;;
68353;SDS011;55274;43.060;25.618;2023-02-22T02:56:51;14.20;;;6.07;;
68353;SDS011;55274;43.060;25.618;2023-02-22T02:59:25;15.20;;;6.38;;
68353;SDS011;55274;43.060;25.618;2023-02-22T03:04:50;17.35;;;6.75;;
68353;SDS011;55274;43.060;25.618;2023-02-22T03:21:40;13.30;;;6.30;;
68353;SDS011;55274;43.060;25.618;2023-02-22T03:24:32;26.23;;;6.90;;
68353;SDS011;55274;43.060;25.618;2023-02-22T03:27:07;16.00;;;6.10;;
68353;SDS011;55274;43.060;25.618;2023-02-22T03:29:41;13.50;;;6.18;;
68353;SDS011;55274;43.060;25.618;2023-02-22T03:32:12;16.67;;;6.13;;
68353;SDS011;55274;43.060;25.618;2023-02-22T03:34:41;13.77;;;5.63;;
68353;SDS011;55274;43.060;25.618;2023-02-22T03:37:18;16.45;;;6.20;;
68353;SDS011;55274;43.060;25.618;2023-02-22T03:39:48;12.85;;;5.57;;
68353;SDS011;55274;43.060;25.618;2023-02-22T03:42:20;15.82;;;5.43;;
68353;SDS011;55274;43.060;25.618;2023-02-22T03:44:51;15.90;;;5.88;;
68353;SDS011;55274;43.060;25.618;2023-02-22T03:47:26;34.75;;;6.00;;
68353;SDS011;55274;43.060;25.618;2023-02-22T03:50:02;22.98;;;6.32;;
68353;SDS011;55274;43.060;25.618;2023-02-22T03:52:50;23.42;;;5.53;;
68353;SDS011;55274;43.060;25.618;2023-02-22T03:55:17;26.88;;;6.60;;
68353;SDS011;55274;43.060;25.618;2023-02-22T03:57:47;21.65;;;5.43;;
68353;SDS011;55274;43.060;25.618;2023-02-22T04:00:20;13.85;;;5.05;;
68353;SDS011;55274;43.060;25.618;2023-02-22T04:02:48;26.95;;;5.80;;
68353;SDS011;55274;43.060;25.618;2023-02-22T04:05:14;22.52;;;5.28;;
68353;SDS011;55274;43.060;25.618;2023-02-22T04:07:41;15.30;;;5.32;;
68353;SDS011;55274;43.060;25.618;2023-02-22T04:10:07;14.43;;;4.88;;
68353;SDS011;55274;43.060;25.618;2023-02-22T04:12:37;10.02;;;4.72;;
68353;SDS011;55274;43.060;25.618;2023-02-22T04:15:03;70.60;;;8.32;;
68353;SDS011;55274;43.060;25.618;2023-02-22T04:17:31;31.75;;;6.72;;
68353;SDS011;55274;43.060;25.618;2023-02-22T04:19:57;21.77;;;5.60;;
68353;SDS011;55274;43.060;25.618;2023-02-22T04:22:23;17.15;;;5.30;;
68353;SDS011;55274;43.060;25.618;2023-02-22T04:24:49;30.88;;;6.50;;
68353;SDS011;55274;43.060;25.618;2023-02-22T04:27:14;30.40;;;6.82;;
68353;SDS011;55274;43.060;25.618;2023-02-22T04:29:40;38.88;;;6.93;;
68353;SDS011;55274;43.060;25.618;2023-02-22T04:32:06;26.52;;;5.70;;
68353;SDS011;55274;43.060;25.618;2023-02-22T04:34:32;27.42;;;5.80;;
68353;SDS011;55274;43.060;25.618;2023-02-22T04:36:58;14.75;;;5.07;;
68353;SDS011;55274;43.060;25.618;2023-02-22T04:39:24;14.70;;;4.97;;
68353;SDS011;55274;43.060;25.618;2023-02-22T04:41:50;25.80;;;6.93;;
68353;SDS011;55274;43.060;25.618;2023-02-22T04:44:15;28.70;;;5.10;;
68353;SDS011;55274;43.060;25.618;2023-02-22T04:46:41;65.32;;;8.30;;
68353;SDS011;55274;43.060;25.618;2023-02-22T04:49:07;15.05;;;5.00;;
68353;SDS011;55274;43.060;25.618;2023-02-22T04:51:33;15.05;;;4.53;;
68353;SDS011;55274;43.060;25.618;2023-02-22T04:54:00;15.65;;;4.55;;
68353;SDS011;55274;43.060;25.618;2023-02-22T04:56:26;26.42;;;5.90;;
68353;SDS011;55274;43.060;25.618;2023-02-22T04:58:52;39.17;;;5.70;;
68353;SDS011;55274;43.060;25.618;2023-02-22T05:01:17;29.50;;;6.28;;
68353;SDS011;55274;43.060;25.618;2023-02-22T05:03:43;71.90;;;8.35;;
68353;SDS011;55274;43.060;25.618;2023-02-22T05:06:09;34.05;;;6.43;;
68353;SDS011;55274;43.060;25.618;2023-02-22T05:08:36;10.40;;;4.30;;
68353;SDS011;55274;43.060;25.618;2023-02-22T05:11:02;50.45;;;7.13;;
68353;SDS011;55274;43.060;25.618;2023-02-22T05:13:29;28.40;;;6.22;;
68353;SDS011;55274;43.060;25.618;2023-02-22T05:15:55;29.15;;;5.10;;
68353;SDS011;55274;43.060;25.618;2023-02-22T05:18:21;21.48;;;6.55;;
68353;SDS011;55274;43.060;25.618;2023-02-22T05:20:47;46.17;;;7.30;;
68353;SDS011;55274;43.060;25.618;2023-02-22T05:23:13;50.78;;;7.70;;
68353;SDS011;55274;43.060;25.618;2023-02-22T05:25:39;40.90;;;7.07;;
68353;SDS011;55274;43.060;25.618;2023-02-22T05:28:10;33.92;;;8.80;;
68353;SDS011;55274;43.060;25.618;2023-02-22T05:30:37;23.65;;;6.43;;
68353;SDS011;55274;43.060;25.618;2023-02-22T05:33:04;14.68;;;5.57;;
68353;SDS011;55274;43.060;25.618;2023-02-22T05:35:30;54.65;;;8.02;;
68353;SDS011;55274;43.060;25.618;2023-02-22T05:37:56;49.00;;;9.23;;
68353;SDS011;55274;43.060;25.618;2023-02-22T05:40:24;51.92;;;11.77;;
68353;SDS011;55274;43.060;25.618;2023-02-22T05:42:51;34.63;;;8.35;;
68353;SDS011;55274;43.060;25.618;2023-02-22T05:45:18;35.97;;;7.13;;
68353;SDS011;55274;43.060;25.618;2023-02-22T05:47:46;37.83;;;6.75;;
68353;SDS011;55274;43.060;25.618;2023-02-22T05:50:12;27.27;;;6.55;;
68353;SDS011;55274;43.060;25.618;2023-02-22T05:52:39;40.00;;;7.70;;
68353;SDS011;55274;43.060;25.618;2023-02-22T05:55:05;28.27;;;6.03;;
68353;SDS011;55274;43.060;25.618;2023-02-22T05:57:32;26.73;;;8.68;;
68353;SDS011;55274;43.060;25.618;2023-02-22T05:59:59;34.78;;;9.90;;
68353;SDS011;55274;43.060;25.618;2023-02-22T06:02:25;30.33;;;7.57;;
68353;SDS011;55274;43.060;25.618;2023-02-22T06:04:51;59.53;;;10.38;;
68353;SDS011;55274;43.060;25.618;2023-02-22T06:07:17;58.70;;;9.25;;
68353;SDS011;55274;43.060;25.618;2023-02-22T06:09:42;70.10;;;10.52;;
68353;SDS011;55274;43.060;25.618;2023-02-22T06:12:08;50.70;;;7.60;;
68353;SDS011;55274;43.060;25.618;2023-02-22T06:14:34;39.03;;;9.32;;
68353;SDS011;55274;43.060;25.618;2023-02-22T06:17:00;50.38;;;9.35;;
68353;SDS011;55274;43.060;25.618;2023-02-22T06:19:29;40.15;;;8.35;;
68353;SDS011;55274;43.060;25.618;2023-02-22T06:21:55;22.65;;;7.78;;
68353;SDS011;55274;43.060;25.618;2023-02-22T06:24:24;40.88;;;8.63;;
68353;SDS011;55274;43.060;25.618;2023-02-22T06:26:57;33.95;;;8.55;;
68353;SDS011;55274;43.060;25.618;2023-02-22T06:29:26;29.25;;;8.35;;
68353;SDS011;55274;43.060;25.618;2023-02-22T06:31:53;32.45;;;9.35;;
68353;SDS011;55274;43.060;25.618;2023-02-22T06:34:19;41.33;;;9.80;;
68353;SDS011;55274;43.060;25.618;2023-02-22T06:36:48;99.68;;;18.38;;
68353;SDS011;55274;43.060;25.618;2023-02-22T06:39:15;135.20;;;21.85;;
68353;SDS011;55274;43.060;25.618;2023-02-22T06:41:43;70.55;;;14.15;;
68353;SDS011;55274;43.060;25.618;2023-02-22T06:44:11;63.58;;;14.43;;
68353;SDS011;55274;43.060;25.618;2023-02-22T06:46:38;86.47;;;16.30;;
68353;SDS011;55274;43.060;25.618;2023-02-22T06:49:04;87.82;;;17.20;;
68353;SDS011;55274;43.060;25.618;2023-02-22T06:51:34;95.45;;;17.95;;
68353;SDS011;55274;43.060;25.618;2023-02-22T06:54:01;87.63;;;21.33;;
68353;SDS011;55274;43.060;25.618;2023-02-22T06:56:27;68.80;;;20.50;;
68353;SDS011;55274;43.060;25.618;2023-02-22T06:58:53;82.28;;;22.02;;
68353;SDS011;55274;43.060;25.618;2023-02-22T07:01:18;76.03;;;23.15;;
68353;SDS011;55274;43.060;25.618;2023-02-22T07:03:44;77.95;;;25.55;;
68353;SDS011;55274;43.060;25.618;2023-02-22T07:06:10;83.03;;;24.98;;
68353;SDS011;55274;43.060;25.618;2023-02-22T07:08:36;68.65;;;21.75;;
68353;SDS011;55274;43.060;25.618;2023-02-22T07:11:02;69.38;;;22.15;;
68353;SDS011;55274;43.060;25.618;2023-02-22T07:13:28;108.80;;;25.25;;
68353;SDS011;55274;43.060;25.618;2023-02-22T07:15:54;59.25;;;18.83;;
68353;SDS011;55274;43.060;25.618;2023-02-22T07:18:20;36.97;;;15.63;;
68353;SDS011;55274;43.060;25.618;2023-02-22T07:20:45;45.17;;;16.60;;
68353;SDS011;55274;43.060;25.618;2023-02-22T07:23:13;43.22;;;15.60;;
68353;SDS011;55274;43.060;25.618;2023-02-22T07:25:39;62.80;;;19.98;;
68353;SDS011;55274;43.060;25.618;2023-02-22T07:28:05;39.70;;;15.77;;
68353;SDS011;55274;43.060;25.618;2023-02-22T07:30:32;46.65;;;14.90;;
68353;SDS011;55274;43.060;25.618;2023-02-22T07:33:02;25.83;;;9.73;;
68353;SDS011;55274;43.060;25.618;2023-02-22T07:35:33;27.13;;;9.82;;
68353;SDS011;55274;43.060;25.618;2023-02-22T07:38:01;16.52;;;4.78;;
68353;SDS011;55274;43.060;25.618;2023-02-22T07:40:27;14.18;;;3.95;;
68353;SDS011;55274;43.060;25.618;2023-02-22T07:42:54;13.45;;;4.07;;
68353;SDS011;55274;43.060;25.618;2023-02-22T07:45:22;22.45;;;5.55;;
68353;SDS011;55274;43.060;25.618;2023-02-22T07:47:49;16.98;;;6.20;;
68353;SDS011;55274;43.060;25.618;2023-02-22T07:50:16;16.15;;;4.45;;
68353;SDS011;55274;43.060;25.618;2023-02-22T07:52:44;26.13;;;4.93;;
68353;SDS011;55274;43.060;25.618;2023-02-22T07:55:15;18.52;;;4.60;;
68353;SDS011;55274;43.060;25.618;2023-02-22T07:57:44;11.43;;;4.85;;
68353;SDS011;55274;43.060;25.618;2023-02-22T08:00:11;11.50;;;3.60;;
68353;SDS011;55274;43.060;25.618;2023-02-22T08:02:39;23.25;;;8.80;;
68353;SDS011;55274;43.060;25.618;2023-02-22T08:05:06;10.50;;;3.92;;
68353;SDS011;55274;43.060;25.618;2023-02-22T08:07:34;23.80;;;3.72;;
68353;SDS011;55274;43.060;25.618;2023-02-22T08:10:04;12.00;;;5.70;;
68353;SDS011;55274;43.060;25.618;2023-02-22T08:12:35;10.70;;;4.78;;
68353;SDS011;55274;43.060;25.618;2023-02-22T08:15:02;17.25;;;5.28;;
68353;SDS011;55274;43.060;25.618;2023-02-22T08:17:29;17.25;;;7.47;;
68353;SDS011;55274;43.060;25.618;2023-02-22T08:19:55;23.83;;;7.63;;
68353;SDS011;55274;43.060;25.618;2023-02-22T08:22:21;19.88;;;5.85;;
68353;SDS011;55274;43.060;25.618;2023-02-22T08:24:48;8.43;;;4.47;;
68353;SDS011;55274;43.060;25.618;2023-02-22T08:27:22;10.80;;;5.07;;
68353;SDS011;55274;43.060;25.618;2023-02-22T08:29:49;15.93;;;6.00;;
68353;SDS011;55274;43.060;25.618;2023-02-22T08:32:16;16.65;;;2.78;;
68353;SDS011;55274;43.060;25.618;2023-02-22T08:34:42;6.82;;;3.25;;
68353;SDS011;55274;43.060;25.618;2023-02-22T08:37:09;7.55;;;3.78;;
68353;SDS011;55274;43.060;25.618;2023-02-22T08:39:35;15.23;;;2.40;;
68353;SDS011;55274;43.060;25.618;2023-02-22T08:42:00;12.32;;;3.83;;
68353;SDS011;55274;43.060;25.618;2023-02-22T08:44:26;17.00;;;3.33;;
68353;SDS011;55274;43.060;25.618;2023-02-22T08:46:52;5.45;;;2.05;;
68353;SDS011;55274;43.060;25.618;2023-02-22T08:49:19;8.70;;;2.38;;
68353;SDS011;55274;43.060;25.618;2023-02-22T08:51:45;10.27;;;2.17;;
68353;SDS011;55274;43.060;25.618;2023-02-22T08:54:11;8.35;;;3.60;;
68353;SDS011;55274;43.060;25.618;2023-02-22T08:56:37;7.97;;;2.15;;
68353;SDS011;55274;43.060;25.618;2023-02-22T08:59:03;5.25;;;2.90;;
68353;SDS011;55274;43.060;25.618;2023-02-22T09:01:29;6.22;;;1.65;;
68353;SDS011;55274;43.060;25.618;2023-02-22T09:03:56;4.00;;;2.35;;
68353;SDS011;55274;43.060;25.618;2023-02-22T09:06:22;3.90;;;2.70;;
68353;SDS011;55274;43.060;25.618;2023-02-22T09:08:48;15.70;;;3.90;;
68353;SDS011;55274;43.060;25.618;2023-02-22T09:11:14;38.72;;;3.58;;
68353;SDS011;55274;43.060;25.618;2023-02-22T09:13:40;12.77;;;4.75;;
68353;SDS011;55274;43.060;25.618;2023-02-22T09:16:05;12.60;;;4.35;;
68353;SDS011;55274;43.060;25.618;2023-02-22T09:18:31;14.05;;;6.00;;
68353;SDS011;55274;43.060;25.618;2023-02-22T09:20:57;17.98;;;4.30;;
68353;SDS011;55274;43.060;25.618;2023-02-22T09:23:24;8.25;;;2.40;;
68353;SDS011;55274;43.060;25.618;2023-02-22T09:25:51;10.02;;;2.67;;
68353;SDS011;55274;43.060;25.618;2023-02-22T09:28:17;25.30;;;2.33;;
68353;SDS011;55274;43.060;25.618;2023-02-22T09:30:43;3.58;;;1.58;;
68353;SDS011;55274;43.060;25.618;2023-02-22T09:33:13;6.32;;;1.70;;
68353;SDS011;55274;43.060;25.618;2023-02-22T09:35:41;11.68;;;4.13;;
68353;SDS011;55274;43.060;25.618;2023-02-22T09:38:10;26.83;;;8.02;;
68353;SDS011;55274;43.060;25.618;2023-02-22T09:40:46;10.43;;;3.45;;
68353;SDS011;55274;43.060;25.618;2023-02-22T09:43:33;10.15;;;2.28;;
68353;SDS011;55274;43.060;25.618;2023-02-22T09:46:14;3.55;;;1.73;;
68353;SDS011;55274;43.060;25.618;2023-02-22T09:48:58;11.35;;;3.22;;
68353;SDS011;55274;43.060;25.618;2023-02-22T09:51:37;14.02;;;3.60;;
68353;SDS011;55274;43.060;25.618;2023-02-22T09:54:23;7.90;;;1.80;;
68353;SDS011;55274;43.060;25.618;2023-02-22T09:56:59;7.63;;;1.80;;
68353;SDS011;55274;43.060;25.618;2023-02-22T09:59:33;15.20;;;2.92;;
68353;SDS011;55274;43.060;25.618;2023-02-22T10:02:17;7.40;;;2.30;;
68353;SDS011;55274;43.060;25.618;2023-02-22T10:07:38;8.25;;;2.10;;
68353;SDS011;55274;43.060;25.618;2023-02-22T10:10:15;11.27;;;4.28;;
68353;SDS011;55274;43.060;25.618;2023-02-22T10:17:59;14.98;;;2.75;;
68353;SDS011;55274;43.060;25.618;2023-02-22T10:20:46;9.90;;;3.95;;
68353;SDS011;55274;43.060;25.618;2023-02-22T10:26:12;21.40;;;3.33;;
68353;SDS011;55274;43.060;25.618;2023-02-22T10:28:52;5.47;;;2.00;;
68353;SDS011;55274;43.060;25.618;2023-02-22T10:31:45;2.47;;;1.42;;
68353;SDS011;55274;43.060;25.618;2023-02-22T10:34:21;60.88;;;5.97;;
68353;SDS011;55274;43.060;25.618;2023-02-22T10:36:50;14.80;;;2.38;;
68353;SDS011;55274;43.060;25.618;2023-02-22T10:39:32;20.65;;;4.38;;
68353;SDS011;55274;43.060;25.618;2023-02-22T10:42:05;61.58;;;7.60;;
68353;SDS011;55274;43.060;25.618;2023-02-22T10:44:33;9.18;;;3.03;;
68353;SDS011;55274;43.060;25.618;2023-02-22T10:47:02;53.97;;;16.30;;
68353;SDS011;55274;43.060;25.618;2023-02-22T10:52:50;11.40;;;3.10;;
68353;SDS011;55274;43.060;25.618;2023-02-22T10:54:58;10.32;;;4.10;;
68353;SDS011;55274;43.060;25.618;2023-02-22T10:57:26;28.17;;;8.07;;
68353;SDS011;55274;43.060;25.618;2023-02-22T10:59:55;14.85;;;7.28;;
68353;SDS011;55274;43.060;25.618;2023-02-22T11:02:29;33.72;;;5.30;;
68353;SDS011;55274;43.060;25.618;2023-02-22T11:04:57;68.00;;;6.03;;
68353;SDS011;55274;43.060;25.618;2023-02-22T11:07:28;18.08;;;3.15;;
68353;SDS011;55274;43.060;25.618;2023-02-22T11:10:03;44.60;;;5.13;;
68353;SDS011;55274;43.060;25.618;2023-02-22T11:12:35;7.57;;;2.72;;
68353;SDS011;55274;43.060;25.618;2023-02-22T11:17:41;9.90;;;3.30;;
68353;SDS011;55274;43.060;25.618;2023-02-22T11:20:17;11.68;;;2.45;;
68353;SDS011;55274;43.060;25.618;2023-02-22T11:22:49;18.88;;;6.65;;
68353;SDS011;55274;43.060;25.618;2023-02-22T11:25:24;14.35;;;4.18;;
68353;SDS011;55274;43.060;25.618;2023-02-22T11:27:53;35.10;;;5.93;;
68353;SDS011;55274;43.060;25.618;2023-02-22T11:30:29;11.30;;;3.75;;
68353;SDS011;55274;43.060;25.618;2023-02-22T11:32:58;5.53;;;2.03;;
68353;SDS011;55274;43.060;25.618;2023-02-22T11:38:15;7.30;;;2.40;;
68353;SDS011;55274;43.060;25.618;2023-02-22T11:40:45;13.40;;;3.20;;
68353;SDS011;55274;43.060;25.618;2023-02-22T11:43:16;15.02;;;3.00;;
68353;SDS011;55274;43.060;25.618;2023-02-22T11:48:21;19.17;;;2.92;;
68353;SDS011;55274;43.060;25.618;2023-02-22T12:13:49;6.75;;;1.75;;
68353;SDS011;55274;43.060;25.618;2023-02-22T12:16:39;11.32;;;1.90;;
68353;SDS011;55274;43.060;25.618;2023-02-22T12:19:32;22.98;;;3.40;;
68353;SDS011;55274;43.060;25.618;2023-02-22T12:22:11;8.30;;;2.60;;
68353;SDS011;55274;43.060;25.618;2023-02-22T12:25:26;6.25;;;3.72;;
68353;SDS011;55274;43.060;25.618;2023-02-22T12:27:54;5.00;;;2.72;;
68353;SDS011;55274;43.060;25.618;2023-02-22T12:32:59;3.15;;;1.95;;
68353;SDS011;55274;43.060;25.618;2023-02-22T12:35:39;15.35;;;6.70;;
68353;SDS011;55274;43.060;25.618;2023-02-22T12:38:21;7.30;;;2.28;;
68353;SDS011;55274;43.060;25.618;2023-02-22T12:40:57;7.95;;;2.40;;
68353;SDS011;55274;43.060;25.618;2023-02-22T12:43:35;3.58;;;1.38;;
68353;SDS011;55274;43.060;25.618;2023-02-22T12:49:03;6.15;;;2.75;;
68353;SDS011;55274;43.060;25.618;2023-02-22T12:59:22;5.85;;;2.22;;
68353;SDS011;55274;43.060;25.618;2023-02-22T13:01:59;18.92;;;3.58;;
68353;SDS011;55274;43.060;25.618;2023-02-22T13:04:39;13.95;;;3.05;;
68353;SDS011;55274;43.060;25.618;2023-02-22T13:07:17;12.00;;;2.25;;
68353;SDS011;55274;43.060;25.618;2023-02-22T13:13:38;7.82;;;2.72;;
68353;SDS011;55274;43.060;25.618;2023-02-22T13:21:54;6.88;;;2.08;;
68353;SDS011;55274;43.060;25.618;2023-02-22T13:27:27;5.95;;;1.50;;
68353;SDS011;55274;43.060;25.618;2023-02-22T13:30:15;8.27;;;2.08;;
68353;SDS011;55274;43.060;25.618;2023-02-22T13:44:21;10.23;;;3.38;;
68353;SDS011;55274;43.060;25.618;2023-02-22T13:52:25;5.20;;;3.03;;
68353;SDS011;55274;43.060;25.618;2023-02-22T13:54:54;32.22;;;4.70;;
68353;SDS011;55274;43.060;25.618;2023-02-22T13:57:28;96.85;;;10.23;;
68353;SDS011;55274;43.060;25.618;2023-02-22T14:00:21;15.15;;;4.00;;
68353;SDS011;55274;43.060;25.618;2023-02-22T14:08:07;7.18;;;2.75;;
68353;SDS011;55274;43.060;25.618;2023-02-22T14:10:53;19.13;;;6.13;;
68353;SDS011;55274;43.060;25.618;2023-02-22T14:13:21;6.55;;;4.00;;
68353;SDS011;55274;43.060;25.618;2023-02-22T14:26:10;5.95;;;2.60;;
68353;SDS011;55274;43.060;25.618;2023-02-22T14:28:59;22.98;;;5.57;;
68353;SDS011;55274;43.060;25.618;2023-02-22T14:31:33;9.70;;;3.90;;
68353;SDS011;55274;43.060;25.618;2023-02-22T14:39:19;8.80;;;3.00;;
68353;SDS011;55274;43.060;25.618;2023-02-22T14:42:24;8.48;;;2.95;;
68353;SDS011;55274;43.060;25.618;2023-02-22T14:50:21;6.38;;;2.22;;
68353;SDS011;55274;43.060;25.618;2023-02-22T14:55:25;41.90;;;8.00;;
68353;SDS011;55274;43.060;25.618;2023-02-22T14:58:09;14.98;;;4.45;;
68353;SDS011;55274;43.060;25.618;2023-02-22T15:00:40;19.15;;;4.43;;
68353;SDS011;55274;43.060;25.618;2023-02-22T15:03:43;8.63;;;3.50;;
68353;SDS011;55274;43.060;25.618;2023-02-22T15:08:40;16.95;;;3.78;;
68353;SDS011;55274;43.060;25.618;2023-02-22T15:11:19;11.27;;;4.53;;
68353;SDS011;55274;43.060;25.618;2023-02-22T15:13:51;14.48;;;4.70;;
68353;SDS011;55274;43.060;25.618;2023-02-22T15:16:19;11.57;;;5.25;;
68353;SDS011;55274;43.060;25.618;2023-02-22T15:18:47;6.45;;;3.90;;
68353;SDS011;55274;43.060;25.618;2023-02-22T15:21:24;10.90;;;4.50;;
68353;SDS011;55274;43.060;25.618;2023-02-22T15:23:55;11.35;;;5.45;;
68353;SDS011;55274;43.060;25.618;2023-02-22T15:26:30;17.50;;;4.97;;
68353;SDS011;55274;43.060;25.618;2023-02-22T15:28:59;6.20;;;3.35;;
68353;SDS011;55274;43.060;25.618;2023-02-22T15:31:33;6.82;;;4.38;;
68353;SDS011;55274;43.060;25.618;2023-02-22T15:34:08;30.52;;;6.43;;
68353;SDS011;55274;43.060;25.618;2023-02-22T15:36:34;26.10;;;4.68;;
68353;SDS011;55274;43.060;25.618;2023-02-22T15:39:00;12.63;;;4.20;;
68353;SDS011;55274;43.060;25.618;2023-02-22T15:41:32;10.55;;;4.82;;
68353;SDS011;55274;43.060;25.618;2023-02-22T15:43:58;74.32;;;7.95;;
68353;SDS011;55274;43.060;25.618;2023-02-22T15:46:28;32.83;;;6.03;;
68353;SDS011;55274;43.060;25.618;2023-02-22T15:49:04;20.60;;;4.30;;
68353;SDS011;55274;43.060;25.618;2023-02-22T15:51:32;20.38;;;5.03;;
68353;SDS011;55274;43.060;25.618;2023-02-22T15:53:59;13.82;;;5.03;;
68353;SDS011;55274;43.060;25.618;2023-02-22T15:56:27;23.77;;;5.00;;
68353;SDS011;55274;43.060;25.618;2023-02-22T15:59:01;33.10;;;5.90;;
68353;SDS011;55274;43.060;25.618;2023-02-22T16:01:36;21.63;;;5.57;;
68353;SDS011;55274;43.060;25.618;2023-02-22T16:04:14;21.42;;;4.72;;
68353;SDS011;55274;43.060;25.618;2023-02-22T16:06:44;11.93;;;4.22;;
68353;SDS011;55274;43.060;25.618;2023-02-22T16:09:12;8.57;;;3.33;;
68353;SDS011;55274;43.060;25.618;2023-02-22T16:11:42;11.48;;;3.90;;
68353;SDS011;55274;43.060;25.618;2023-02-22T16:14:29;7.07;;;3.58;;
68353;SDS011;55274;43.060;25.618;2023-02-22T16:19:49;46.25;;;6.00;;
68353;SDS011;55274;43.060;25.618;2023-02-22T16:22:24;101.25;;;10.93;;
68353;SDS011;55274;43.060;25.618;2023-02-22T16:27:44;42.53;;;6.45;;
68353;SDS011;55274;43.060;25.618;2023-02-22T16:32:58;45.20;;;6.85;;
68353;SDS011;55274;43.060;25.618;2023-02-22T16:35:29;32.75;;;5.47;;
68353;SDS011;55274;43.060;25.618;2023-02-22T16:40:50;18.40;;;4.18;;
68353;SDS011;55274;43.060;25.618;2023-02-22T16:43:20;19.38;;;4.30;;
68353;SDS011;55274;43.060;25.618;2023-02-22T16:45:48;22.17;;;3.83;;
68353;SDS011;55274;43.060;25.618;2023-02-22T16:48:18;24.27;;;4.95;;
68353;SDS011;55274;43.060;25.618;2023-02-22T16:50:46;22.23;;;4.78;;
68353;SDS011;55274;43.060;25.618;2023-02-22T16:53:12;23.75;;;4.50;;
68353;SDS011;55274;43.060;25.618;2023-02-22T16:55:44;89.78;;;7.65;;
68353;SDS011;55274;43.060;25.618;2023-02-22T16:58:15;30.52;;;5.72;;
68353;SDS011;55274;43.060;25.618;2023-02-22T17:00:43;53.38;;;6.28;;
68353;SDS011;55274;43.060;25.618;2023-02-22T17:03:13;67.40;;;7.38;;
68353;SDS011;55274;43.060;25.618;2023-02-22T17:08:05;66.20;;;8.10;;
68353;SDS011;55274;43.060;25.618;2023-02-22T17:10:32;48.17;;;6.20;;
68353;SDS011;55274;43.060;25.618;2023-02-22T17:12:58;57.08;;;6.40;;
68353;SDS011;55274;43.060;25.618;2023-02-22T17:15:26;68.25;;;7.05;;
68353;SDS011;55274;43.060;25.618;2023-02-22T17:17:55;51.40;;;6.38;;
68353;SDS011;55274;43.060;25.618;2023-02-22T17:20:21;25.85;;;4.60;;
68353;SDS011;55274;43.060;25.618;2023-02-22T17:23:06;39.05;;;5.88;;
68353;SDS011;55274;43.060;25.618;2023-02-22T17:28:10;34.92;;;5.22;;
68353;SDS011;55274;43.060;25.618;2023-02-22T17:30:36;24.05;;;5.95;;